Portada
METAR-TAF:

METAR-TAF

Aeroports :

Scatsta, Shetland, Escòcia

latitud: 60-26N, longitud: 001-18W, altitud: 22 m

Observació

L'informe es va fer fa 25 minuts, a les 19:50 UTC
Vent 11 kt del Sud/Sud-Oest
Temperatura 14°C
Humitat 88%
Pressió 1016 hPa
Visibilitat 10 km o més
pluja

METAR: EGPM 241950Z AUTO 21011KT 9999 -RA NCD 14/12 Q1016

Hora: 21:15 (20:15 UTC)

Pronòstic

L'informe es va fer fa 8 hores i 13 minuts, a les 12:02 UTC
Pronòstic vàlid del 24 a les 12 UTC al 24 a les 15 UTC
Vent 15 kt del Sud
Visibilitat 10 km o més
Escasses núvols a una alçada de 1000 ft
Temporalment
l' 24 a les 12 UTC al 24 a les 15 UTC
Vent 18 kt del Sud/Sud-Oest amb ràfegues de 28 kt

TAF: EGPM 241202Z 2412/2415 19015KT 9999 FEW010 TEMPO 2412/2415 20018G28KT

Observacions i pronòstics meteorològics de més de 4000 aeroports (METAR i TAF).

Les estacions disponibles són els punts grocs i vermells al mapa.

Posi el ratolí al punt desitjat per veure el nom de l'estació.

Feu clic per veure les observacions i els pronòstics meteorològics.

Per canviar el mapa: feu clic els botons verds amb una creu de color negre per apropar; al botó verd amb un guió per allunyar la imatge; o en les fletxes verdes per a mapes adjacents.


METAR-TAF: